sensor_id;sensor_type;location;lat;lon;timestamp;temperature;humidity
12893;DHT22;6514;48.606;9.222;2023-12-29T00:01:30;8.10;99.90
12893;DHT22;6514;48.606;9.222;2023-12-29T00:03:57;8.20;99.90
12893;DHT22;6514;48.606;9.222;2023-12-29T00:06:25;8.20;99.90
12893;DHT22;6514;48.606;9.222;2023-12-29T00:08:52;8.20;99.90
12893;DHT22;6514;48.606;9.222;2023-12-29T00:11:20;8.20;99.90
12893;DHT22;6514;48.606;9.222;2023-12-29T00:13:47;8.20;99.90
12893;DHT22;6514;48.606;9.222;2023-12-29T00:16:14;8.30;99.90
12893;DHT22;6514;48.606;9.222;2023-12-29T00:18:42;8.20;99.90
12893;DHT22;6514;48.606;9.222;2023-12-29T00:21:09;8.20;99.90
12893;DHT22;6514;48.606;9.222;2023-12-29T00:23:36;8.30;99.90
12893;DHT22;6514;48.606;9.222;2023-12-29T00:26:03;8.30;99.90
12893;DHT22;6514;48.606;9.222;2023-12-29T00:28:30;8.20;99.90
12893;DHT22;6514;48.606;9.222;2023-12-29T00:30:57;8.20;99.90
12893;DHT22;6514;48.606;9.222;2023-12-29T00:33:24;8.30;99.90
12893;DHT22;6514;48.606;9.222;2023-12-29T00:35:53;8.30;99.90
12893;DHT22;6514;48.606;9.222;2023-12-29T00:38:20;8.40;99.90
12893;DHT22;6514;48.606;9.222;2023-12-29T00:40:47;8.30;99.90
12893;DHT22;6514;48.606;9.222;2023-12-29T00:43:15;8.30;99.90
12893;DHT22;6514;48.606;9.222;2023-12-29T00:45:42;8.30;99.90
12893;DHT22;6514;48.606;9.222;2023-12-29T00:48:09;8.30;99.90
12893;DHT22;6514;48.606;9.222;2023-12-29T00:50:36;8.40;99.90
12893;DHT22;6514;48.606;9.222;2023-12-29T00:53:04;8.40;99.90
12893;DHT22;6514;48.606;9.222;2023-12-29T00:55:31;8.40;99.90
12893;DHT22;6514;48.606;9.222;2023-12-29T00:57:58;8.40;99.90
12893;DHT22;6514;48.606;9.222;2023-12-29T01:00:24;8.50;99.90
12893;DHT22;6514;48.606;9.222;2023-12-29T01:02:51;8.40;99.90
12893;DHT22;6514;48.606;9.222;2023-12-29T01:05:18;8.40;99.90
12893;DHT22;6514;48.606;9.222;2023-12-29T01:07:45;8.30;99.90
12893;DHT22;6514;48.606;9.222;2023-12-29T01:10:13;8.20;99.90
12893;DHT22;6514;48.606;9.222;2023-12-29T01:12:40;8.10;99.90
12893;DHT22;6514;48.606;9.222;2023-12-29T01:15:08;8.20;99.90
12893;DHT22;6514;48.606;9.222;2023-12-29T01:17:35;8.20;99.90
12893;DHT22;6514;48.606;9.222;2023-12-29T01:20:01;8.20;99.90
12893;DHT22;6514;48.606;9.222;2023-12-29T01:22:29;8.20;99.90
12893;DHT22;6514;48.606;9.222;2023-12-29T01:24:58;8.30;99.90
12893;DHT22;6514;48.606;9.222;2023-12-29T01:27:26;8.30;99.90
12893;DHT22;6514;48.606;9.222;2023-12-29T01:29:53;8.30;99.90
12893;DHT22;6514;48.606;9.222;2023-12-29T01:32:20;8.30;99.90
12893;DHT22;6514;48.606;9.222;2023-12-29T01:34:47;8.40;99.90
12893;DHT22;6514;48.606;9.222;2023-12-29T01:37:14;8.50;99.90
12893;DHT22;6514;48.606;9.222;2023-12-29T01:39:41;8.60;99.90
12893;DHT22;6514;48.606;9.222;2023-12-29T01:42:08;8.60;99.90
12893;DHT22;6514;48.606;9.222;2023-12-29T01:44:38;8.70;99.90
12893;DHT22;6514;48.606;9.222;2023-12-29T01:47:11;8.70;99.90
12893;DHT22;6514;48.606;9.222;2023-12-29T01:49:40;8.70;99.90
12893;DHT22;6514;48.606;9.222;2023-12-29T01:52:07;8.70;99.90
12893;DHT22;6514;48.606;9.222;2023-12-29T01:54:35;8.60;99.90
12893;DHT22;6514;48.606;9.222;2023-12-29T01:57:04;8.60;99.90
12893;DHT22;6514;48.606;9.222;2023-12-29T01:59:31;8.60;99.90
12893;DHT22;6514;48.606;9.222;2023-12-29T02:01:59;8.60;99.90
12893;DHT22;6514;48.606;9.222;2023-12-29T02:04:28;8.60;99.90
12893;DHT22;6514;48.606;9.222;2023-12-29T02:06:55;8.50;99.90
12893;DHT22;6514;48.606;9.222;2023-12-29T02:09:21;8.50;99.90
12893;DHT22;6514;48.606;9.222;2023-12-29T02:11:48;8.40;99.90
12893;DHT22;6514;48.606;9.222;2023-12-29T02:14:16;8.40;99.90
12893;DHT22;6514;48.606;9.222;2023-12-29T02:17:04;8.40;99.90
12893;DHT22;6514;48.606;9.222;2023-12-29T02:19:39;8.40;99.90
12893;DHT22;6514;48.606;9.222;2023-12-29T02:22:06;8.40;99.90
12893;DHT22;6514;48.606;9.222;2023-12-29T02:24:34;8.40;99.90
12893;DHT22;6514;48.606;9.222;2023-12-29T02:27:15;8.40;99.90
12893;DHT22;6514;48.606;9.222;2023-12-29T02:29:51;8.40;99.90
12893;DHT22;6514;48.606;9.222;2023-12-29T02:32:21;8.50;99.90
12893;DHT22;6514;48.606;9.222;2023-12-29T02:34:50;8.50;99.90
12893;DHT22;6514;48.606;9.222;2023-12-29T02:37:19;8.50;99.90
12893;DHT22;6514;48.606;9.222;2023-12-29T02:39:46;8.50;99.90
12893;DHT22;6514;48.606;9.222;2023-12-29T02:42:15;8.50;99.90
12893;DHT22;6514;48.606;9.222;2023-12-29T02:44:41;8.50;99.90
12893;DHT22;6514;48.606;9.222;2023-12-29T02:47:08;8.50;99.90
12893;DHT22;6514;48.606;9.222;2023-12-29T02:49:35;8.40;99.90
12893;DHT22;6514;48.606;9.222;2023-12-29T02:52:02;8.40;99.90
12893;DHT22;6514;48.606;9.222;2023-12-29T02:54:29;8.40;99.90
12893;DHT22;6514;48.606;9.222;2023-12-29T02:56:55;8.50;99.90
12893;DHT22;6514;48.606;9.222;2023-12-29T02:59:24;8.50;99.90
12893;DHT22;6514;48.606;9.222;2023-12-29T03:01:50;8.50;99.90
12893;DHT22;6514;48.606;9.222;2023-12-29T03:04:17;8.40;99.90
12893;DHT22;6514;48.606;9.222;2023-12-29T03:06:44;8.50;99.90
12893;DHT22;6514;48.606;9.222;2023-12-29T03:09:11;8.50;99.90
12893;DHT22;6514;48.606;9.222;2023-12-29T03:11:37;8.50;99.90
12893;DHT22;6514;48.606;9.222;2023-12-29T03:14:04;8.50;99.90
12893;DHT22;6514;48.606;9.222;2023-12-29T03:16:32;8.50;99.90
12893;DHT22;6514;48.606;9.222;2023-12-29T03:18:59;8.50;99.90
12893;DHT22;6514;48.606;9.222;2023-12-29T03:21:26;8.40;99.90
12893;DHT22;6514;48.606;9.222;2023-12-29T03:23:53;8.40;99.90
12893;DHT22;6514;48.606;9.222;2023-12-29T03:26:19;8.40;99.90
12893;DHT22;6514;48.606;9.222;2023-12-29T03:28:46;8.30;99.90
12893;DHT22;6514;48.606;9.222;2023-12-29T03:31:13;8.20;99.90
12893;DHT22;6514;48.606;9.222;2023-12-29T03:33:41;8.20;99.90
12893;DHT22;6514;48.606;9.222;2023-12-29T03:36:08;8.10;99.90
12893;DHT22;6514;48.606;9.222;2023-12-29T03:38:35;8.00;99.90
12893;DHT22;6514;48.606;9.222;2023-12-29T03:41:03;8.10;99.90
12893;DHT22;6514;48.606;9.222;2023-12-29T03:43:29;8.10;99.90
12893;DHT22;6514;48.606;9.222;2023-12-29T03:45:56;8.10;99.90
12893;DHT22;6514;48.606;9.222;2023-12-29T03:48:24;8.20;99.90
12893;DHT22;6514;48.606;9.222;2023-12-29T03:50:52;8.20;99.90
12893;DHT22;6514;48.606;9.222;2023-12-29T03:53:18;8.10;99.90
12893;DHT22;6514;48.606;9.222;2023-12-29T03:55:45;8.10;99.90
12893;DHT22;6514;48.606;9.222;2023-12-29T03:58:12;8.00;99.90
12893;DHT22;6514;48.606;9.222;2023-12-29T04:00:39;7.90;99.90
12893;DHT22;6514;48.606;9.222;2023-12-29T04:03:07;7.90;99.90
12893;DHT22;6514;48.606;9.222;2023-12-29T04:05:33;7.80;99.90
12893;DHT22;6514;48.606;9.222;2023-12-29T04:08:02;7.80;99.90
12893;DHT22;6514;48.606;9.222;2023-12-29T04:10:29;7.80;99.90
12893;DHT22;6514;48.606;9.222;2023-12-29T04:12:55;7.80;99.90
12893;DHT22;6514;48.606;9.222;2023-12-29T04:15:22;7.80;99.90
12893;DHT22;6514;48.606;9.222;2023-12-29T04:17:49;7.80;99.90
12893;DHT22;6514;48.606;9.222;2023-12-29T04:20:16;7.80;99.90
12893;DHT22;6514;48.606;9.222;2023-12-29T04:22:43;7.80;99.90
12893;DHT22;6514;48.606;9.222;2023-12-29T04:25:11;7.80;99.90
12893;DHT22;6514;48.606;9.222;2023-12-29T04:27:38;7.80;99.90
12893;DHT22;6514;48.606;9.222;2023-12-29T04:30:06;7.80;99.90
12893;DHT22;6514;48.606;9.222;2023-12-29T04:32:33;7.80;99.90
12893;DHT22;6514;48.606;9.222;2023-12-29T04:35:00;7.80;99.90
12893;DHT22;6514;48.606;9.222;2023-12-29T04:37:27;7.80;99.90
12893;DHT22;6514;48.606;9.222;2023-12-29T04:39:54;7.80;99.90
12893;DHT22;6514;48.606;9.222;2023-12-29T04:42:22;7.90;99.90
12893;DHT22;6514;48.606;9.222;2023-12-29T04:44:49;7.90;99.90
12893;DHT22;6514;48.606;9.222;2023-12-29T04:47:16;7.90;99.90
12893;DHT22;6514;48.606;9.222;2023-12-29T04:49:43;7.90;99.90
12893;DHT22;6514;48.606;9.222;2023-12-29T04:52:09;8.00;99.90
12893;DHT22;6514;48.606;9.222;2023-12-29T04:54:36;7.90;99.90
12893;DHT22;6514;48.606;9.222;2023-12-29T04:57:03;8.00;99.90
12893;DHT22;6514;48.606;9.222;2023-12-29T04:59:32;7.90;99.90
12893;DHT22;6514;48.606;9.222;2023-12-29T05:01:59;7.90;99.90
12893;DHT22;6514;48.606;9.222;2023-12-29T05:04:25;7.90;99.90
12893;DHT22;6514;48.606;9.222;2023-12-29T05:06:52;7.90;99.90
12893;DHT22;6514;48.606;9.222;2023-12-29T05:09:19;8.00;99.90
12893;DHT22;6514;48.606;9.222;2023-12-29T05:11:46;8.00;99.90
12893;DHT22;6514;48.606;9.222;2023-12-29T05:14:13;8.00;99.90
12893;DHT22;6514;48.606;9.222;2023-12-29T05:16:41;7.90;99.90
12893;DHT22;6514;48.606;9.222;2023-12-29T05:19:08;7.90;99.90
12893;DHT22;6514;48.606;9.222;2023-12-29T05:21:35;7.80;99.90
12893;DHT22;6514;48.606;9.222;2023-12-29T05:24:02;7.80;99.90
12893;DHT22;6514;48.606;9.222;2023-12-29T05:26:30;7.70;99.90
12893;DHT22;6514;48.606;9.222;2023-12-29T05:28:56;7.70;99.90
12893;DHT22;6514;48.606;9.222;2023-12-29T05:31:23;7.70;99.90
12893;DHT22;6514;48.606;9.222;2023-12-29T05:33:51;7.60;99.90
12893;DHT22;6514;48.606;9.222;2023-12-29T05:36:20;7.60;99.90
12893;DHT22;6514;48.606;9.222;2023-12-29T05:38:47;7.50;99.90
12893;DHT22;6514;48.606;9.222;2023-12-29T05:41:14;7.50;99.90
12893;DHT22;6514;48.606;9.222;2023-12-29T05:43:41;7.50;99.90
12893;DHT22;6514;48.606;9.222;2023-12-29T05:46:09;7.50;99.90
12893;DHT22;6514;48.606;9.222;2023-12-29T05:48:37;7.50;99.90
12893;DHT22;6514;48.606;9.222;2023-12-29T05:51:07;7.50;99.90
12893;DHT22;6514;48.606;9.222;2023-12-29T05:53:35;7.50;99.90
12893;DHT22;6514;48.606;9.222;2023-12-29T05:56:03;7.50;99.90
12893;DHT22;6514;48.606;9.222;2023-12-29T05:58:29;7.60;99.90
12893;DHT22;6514;48.606;9.222;2023-12-29T06:00:56;7.60;99.90
12893;DHT22;6514;48.606;9.222;2023-12-29T06:03:24;7.70;99.90
12893;DHT22;6514;48.606;9.222;2023-12-29T06:05:51;7.70;99.90
12893;DHT22;6514;48.606;9.222;2023-12-29T06:08:19;7.80;99.90
12893;DHT22;6514;48.606;9.222;2023-12-29T06:10:46;7.90;99.90
12893;DHT22;6514;48.606;9.222;2023-12-29T06:13:13;7.90;99.90
12893;DHT22;6514;48.606;9.222;2023-12-29T06:15:40;7.90;99.90
12893;DHT22;6514;48.606;9.222;2023-12-29T06:18:07;8.00;99.90
12893;DHT22;6514;48.606;9.222;2023-12-29T06:20:34;8.10;99.90
12893;DHT22;6514;48.606;9.222;2023-12-29T06:23:01;8.10;99.90
12893;DHT22;6514;48.606;9.222;2023-12-29T06:25:29;8.20;99.90
12893;DHT22;6514;48.606;9.222;2023-12-29T06:27:56;8.20;99.90
12893;DHT22;6514;48.606;9.222;2023-12-29T06:30:23;8.20;99.90
12893;DHT22;6514;48.606;9.222;2023-12-29T06:32:50;8.20;99.90
12893;DHT22;6514;48.606;9.222;2023-12-29T06:35:17;8.20;99.90
12893;DHT22;6514;48.606;9.222;2023-12-29T06:37:44;8.10;99.90
12893;DHT22;6514;48.606;9.222;2023-12-29T06:40:11;8.10;99.90
12893;DHT22;6514;48.606;9.222;2023-12-29T06:42:39;8.10;99.90
12893;DHT22;6514;48.606;9.222;2023-12-29T06:45:07;8.00;99.90
12893;DHT22;6514;48.606;9.222;2023-12-29T06:47:34;7.90;99.90
12893;DHT22;6514;48.606;9.222;2023-12-29T06:50:01;7.80;99.90
12893;DHT22;6514;48.606;9.222;2023-12-29T06:52:28;7.60;99.90
12893;DHT22;6514;48.606;9.222;2023-12-29T06:54:59;7.60;99.90
12893;DHT22;6514;48.606;9.222;2023-12-29T06:57:27;7.60;99.90
12893;DHT22;6514;48.606;9.222;2023-12-29T06:59:55;7.60;99.90
12893;DHT22;6514;48.606;9.222;2023-12-29T07:02:22;7.60;99.90
12893;DHT22;6514;48.606;9.222;2023-12-29T07:04:49;7.60;99.90
12893;DHT22;6514;48.606;9.222;2023-12-29T07:07:16;7.60;99.90
12893;DHT22;6514;48.606;9.222;2023-12-29T07:09:43;7.50;99.90
12893;DHT22;6514;48.606;9.222;2023-12-29T07:12:10;7.60;99.90
12893;DHT22;6514;48.606;9.222;2023-12-29T07:14:37;7.60;99.90
12893;DHT22;6514;48.606;9.222;2023-12-29T07:17:06;7.60;99.90
12893;DHT22;6514;48.606;9.222;2023-12-29T07:19:33;7.50;99.90
12893;DHT22;6514;48.606;9.222;2023-12-29T07:22:03;7.60;99.90
12893;DHT22;6514;48.606;9.222;2023-12-29T07:24:31;7.60;99.90
12893;DHT22;6514;48.606;9.222;2023-12-29T07:26:58;7.60;99.90
12893;DHT22;6514;48.606;9.222;2023-12-29T07:29:25;7.60;99.90
12893;DHT22;6514;48.606;9.222;2023-12-29T07:31:52;7.70;99.90
12893;DHT22;6514;48.606;9.222;2023-12-29T07:34:21;7.70;99.90
12893;DHT22;6514;48.606;9.222;2023-12-29T07:36:48;7.80;99.90
12893;DHT22;6514;48.606;9.222;2023-12-29T07:39:15;7.80;99.90
12893;DHT22;6514;48.606;9.222;2023-12-29T07:41:42;7.90;99.90
12893;DHT22;6514;48.606;9.222;2023-12-29T07:44:10;8.00;99.90
12893;DHT22;6514;48.606;9.222;2023-12-29T07:46:37;8.00;99.90
12893;DHT22;6514;48.606;9.222;2023-12-29T07:49:04;8.10;99.90
12893;DHT22;6514;48.606;9.222;2023-12-29T07:51:33;8.20;99.90
12893;DHT22;6514;48.606;9.222;2023-12-29T07:54:00;8.20;99.90
12893;DHT22;6514;48.606;9.222;2023-12-29T07:56:27;8.20;99.90
12893;DHT22;6514;48.606;9.222;2023-12-29T07:58:54;8.30;99.90
12893;DHT22;6514;48.606;9.222;2023-12-29T08:01:21;8.30;99.90
12893;DHT22;6514;48.606;9.222;2023-12-29T08:03:48;8.30;99.90
12893;DHT22;6514;48.606;9.222;2023-12-29T08:06:14;8.30;99.90
12893;DHT22;6514;48.606;9.222;2023-12-29T08:08:43;8.30;99.90
12893;DHT22;6514;48.606;9.222;2023-12-29T08:11:13;8.50;99.90
12893;DHT22;6514;48.606;9.222;2023-12-29T08:13:41;8.70;99.90
12893;DHT22;6514;48.606;9.222;2023-12-29T08:16:08;8.80;99.90
12893;DHT22;6514;48.606;9.222;2023-12-29T08:18:34;9.00;99.90
12893;DHT22;6514;48.606;9.222;2023-12-29T08:21:01;9.10;99.90
12893;DHT22;6514;48.606;9.222;2023-12-29T08:23:28;9.20;99.90
12893;DHT22;6514;48.606;9.222;2023-12-29T08:25:57;9.30;99.90
12893;DHT22;6514;48.606;9.222;2023-12-29T08:28:24;9.40;99.90
12893;DHT22;6514;48.606;9.222;2023-12-29T08:30:52;9.40;99.90
12893;DHT22;6514;48.606;9.222;2023-12-29T08:33:20;9.40;99.90
12893;DHT22;6514;48.606;9.222;2023-12-29T08:35:47;9.50;99.90
12893;DHT22;6514;48.606;9.222;2023-12-29T08:38:14;9.60;99.90
12893;DHT22;6514;48.606;9.222;2023-12-29T08:40:41;9.80;99.90
12893;DHT22;6514;48.606;9.222;2023-12-29T08:43:09;9.90;99.90
12893;DHT22;6514;48.606;9.222;2023-12-29T08:45:36;9.80;99.90
12893;DHT22;6514;48.606;9.222;2023-12-29T08:48:05;9.80;99.90
12893;DHT22;6514;48.606;9.222;2023-12-29T08:50:32;9.80;99.90
12893;DHT22;6514;48.606;9.222;2023-12-29T08:52:59;9.70;99.90
12893;DHT22;6514;48.606;9.222;2023-12-29T08:55:26;9.80;99.90
12893;DHT22;6514;48.606;9.222;2023-12-29T08:57:53;9.80;99.90
12893;DHT22;6514;48.606;9.222;2023-12-29T09:00:21;10.00;99.90
12893;DHT22;6514;48.606;9.222;2023-12-29T09:02:48;10.10;99.90
12893;DHT22;6514;48.606;9.222;2023-12-29T09:05:15;10.20;99.90
12893;DHT22;6514;48.606;9.222;2023-12-29T09:07:42;10.30;99.90
12893;DHT22;6514;48.606;9.222;2023-12-29T09:10:09;10.40;99.90
12893;DHT22;6514;48.606;9.222;2023-12-29T09:12:38;10.40;99.90
12893;DHT22;6514;48.606;9.222;2023-12-29T09:15:06;10.30;99.90
12893;DHT22;6514;48.606;9.222;2023-12-29T09:17:34;10.60;99.90
12893;DHT22;6514;48.606;9.222;2023-12-29T09:20:02;10.60;99.90
12893;DHT22;6514;48.606;9.222;2023-12-29T09:22:29;10.80;99.90
12893;DHT22;6514;48.606;9.222;2023-12-29T09:24:56;11.10;99.90
12893;DHT22;6514;48.606;9.222;2023-12-29T09:27:22;11.20;99.90
12893;DHT22;6514;48.606;9.222;2023-12-29T09:29:50;11.20;99.90
12893;DHT22;6514;48.606;9.222;2023-12-29T09:32:17;11.10;99.90
12893;DHT22;6514;48.606;9.222;2023-12-29T09:34:45;11.00;99.90
12893;DHT22;6514;48.606;9.222;2023-12-29T09:37:12;10.90;99.90
12893;DHT22;6514;48.606;9.222;2023-12-29T09:39:39;10.80;99.90
12893;DHT22;6514;48.606;9.222;2023-12-29T09:42:07;11.40;99.90
12893;DHT22;6514;48.606;9.222;2023-12-29T09:44:36;10.80;99.90
12893;DHT22;6514;48.606;9.222;2023-12-29T09:47:04;10.80;99.90
12893;DHT22;6514;48.606;9.222;2023-12-29T09:49:38;10.70;99.90
12893;DHT22;6514;48.606;9.222;2023-12-29T09:52:07;10.70;99.90
12893;DHT22;6514;48.606;9.222;2023-12-29T09:54:37;10.80;99.90
12893;DHT22;6514;48.606;9.222;2023-12-29T09:57:04;10.70;99.90
12893;DHT22;6514;48.606;9.222;2023-12-29T09:59:33;10.70;99.90
12893;DHT22;6514;48.606;9.222;2023-12-29T10:02:03;10.60;99.90
12893;DHT22;6514;48.606;9.222;2023-12-29T10:04:31;10.60;99.90
12893;DHT22;6514;48.606;9.222;2023-12-29T10:07:03;10.50;99.90
12893;DHT22;6514;48.606;9.222;2023-12-29T10:09:36;10.50;99.90
12893;DHT22;6514;48.606;9.222;2023-12-29T10:12:08;10.50;99.90
12893;DHT22;6514;48.606;9.222;2023-12-29T10:14:40;11.00;99.90
12893;DHT22;6514;48.606;9.222;2023-12-29T10:17:15;10.80;99.90
12893;DHT22;6514;48.606;9.222;2023-12-29T10:19:48;11.10;99.90
12893;DHT22;6514;48.606;9.222;2023-12-29T10:22:21;11.30;99.90
12893;DHT22;6514;48.606;9.222;2023-12-29T10:24:50;11.40;99.90
12893;DHT22;6514;48.606;9.222;2023-12-29T10:27:18;11.40;99.90
12893;DHT22;6514;48.606;9.222;2023-12-29T10:29:45;11.40;99.90
12893;DHT22;6514;48.606;9.222;2023-12-29T10:32:12;11.40;99.90
12893;DHT22;6514;48.606;9.222;2023-12-29T10:34:39;11.50;99.90
12893;DHT22;6514;48.606;9.222;2023-12-29T10:37:07;11.70;99.90
12893;DHT22;6514;48.606;9.222;2023-12-29T10:39:39;11.90;99.90
12893;DHT22;6514;48.606;9.222;2023-12-29T10:42:22;11.90;99.90
12893;DHT22;6514;48.606;9.222;2023-12-29T10:45:04;11.80;99.90
12893;DHT22;6514;48.606;9.222;2023-12-29T10:47:31;11.60;99.90
12893;DHT22;6514;48.606;9.222;2023-12-29T10:49:59;11.70;99.90
12893;DHT22;6514;48.606;9.222;2023-12-29T10:52:26;11.80;99.90
12893;DHT22;6514;48.606;9.222;2023-12-29T10:55:04;11.90;99.90
12893;DHT22;6514;48.606;9.222;2023-12-29T10:57:33;11.90;99.90
12893;DHT22;6514;48.606;9.222;2023-12-29T11:00:00;11.90;99.90
12893;DHT22;6514;48.606;9.222;2023-12-29T11:02:27;12.00;99.90
12893;DHT22;6514;48.606;9.222;2023-12-29T11:05:04;12.20;99.90
12893;DHT22;6514;48.606;9.222;2023-12-29T11:07:33;12.30;99.90
12893;DHT22;6514;48.606;9.222;2023-12-29T11:10:01;12.40;99.90
12893;DHT22;6514;48.606;9.222;2023-12-29T11:12:31;12.50;99.90
12893;DHT22;6514;48.606;9.222;2023-12-29T11:15:01;12.60;99.90
12893;DHT22;6514;48.606;9.222;2023-12-29T11:17:31;12.60;99.90
12893;DHT22;6514;48.606;9.222;2023-12-29T11:19:59;12.70;99.90
12893;DHT22;6514;48.606;9.222;2023-12-29T11:22:28;12.70;99.90
12893;DHT22;6514;48.606;9.222;2023-12-29T11:24:55;12.70;99.90
12893;DHT22;6514;48.606;9.222;2023-12-29T11:27:27;12.70;99.90
12893;DHT22;6514;48.606;9.222;2023-12-29T11:29:55;12.80;99.90
12893;DHT22;6514;48.606;9.222;2023-12-29T11:32:30;12.80;99.90
12893;DHT22;6514;48.606;9.222;2023-12-29T11:35:06;12.80;99.90
12893;DHT22;6514;48.606;9.222;2023-12-29T11:37:48;12.80;99.90
12893;DHT22;6514;48.606;9.222;2023-12-29T11:40:20;12.70;99.90
12893;DHT22;6514;48.606;9.222;2023-12-29T11:42:49;12.70;99.90
12893;DHT22;6514;48.606;9.222;2023-12-29T11:45:24;12.60;99.90
12893;DHT22;6514;48.606;9.222;2023-12-29T11:47:53;12.40;99.90
12893;DHT22;6514;48.606;9.222;2023-12-29T11:50:29;12.30;99.90
12893;DHT22;6514;48.606;9.222;2023-12-29T11:52:57;12.30;99.90
12893;DHT22;6514;48.606;9.222;2023-12-29T11:55:28;12.30;99.90
12893;DHT22;6514;48.606;9.222;2023-12-29T11:57:56;12.30;99.90
12893;DHT22;6514;48.606;9.222;2023-12-29T12:00:43;12.20;99.90
12893;DHT22;6514;48.606;9.222;2023-12-29T12:03:22;10.60;99.90
12893;DHT22;6514;48.606;9.222;2023-12-29T12:05:50;12.00;99.90
12893;DHT22;6514;48.606;9.222;2023-12-29T12:08:27;12.10;99.90
12893;DHT22;6514;48.606;9.222;2023-12-29T12:10:55;12.20;99.90
12893;DHT22;6514;48.606;9.222;2023-12-29T12:13:43;12.20;99.90
12893;DHT22;6514;48.606;9.222;2023-12-29T12:16:49;12.10;99.90
12893;DHT22;6514;48.606;9.222;2023-12-29T12:19:20;12.10;99.90
12893;DHT22;6514;48.606;9.222;2023-12-29T12:21:50;12.10;99.90
12893;DHT22;6514;48.606;9.222;2023-12-29T12:24:19;12.10;99.90
12893;DHT22;6514;48.606;9.222;2023-12-29T12:26:46;12.10;99.90
12893;DHT22;6514;48.606;9.222;2023-12-29T12:29:15;12.10;99.90
12893;DHT22;6514;48.606;9.222;2023-12-29T12:31:53;12.10;99.90
12893;DHT22;6514;48.606;9.222;2023-12-29T12:34:21;12.20;99.90
12893;DHT22;6514;48.606;9.222;2023-12-29T12:36:48;12.30;99.90
12893;DHT22;6514;48.606;9.222;2023-12-29T12:39:16;12.50;99.90
12893;DHT22;6514;48.606;9.222;2023-12-29T12:41:43;12.60;99.90
12893;DHT22;6514;48.606;9.222;2023-12-29T12:44:11;12.70;99.90
12893;DHT22;6514;48.606;9.222;2023-12-29T12:46:41;12.80;99.90
12893;DHT22;6514;48.606;9.222;2023-12-29T12:49:08;12.80;99.90
12893;DHT22;6514;48.606;9.222;2023-12-29T12:51:36;12.70;99.90
12893;DHT22;6514;48.606;9.222;2023-12-29T12:54:04;12.70;99.90
12893;DHT22;6514;48.606;9.222;2023-12-29T12:56:31;12.60;99.90
12893;DHT22;6514;48.606;9.222;2023-12-29T12:58:58;12.50;99.90
12893;DHT22;6514;48.606;9.222;2023-12-29T13:01:28;12.40;99.90
12893;DHT22;6514;48.606;9.222;2023-12-29T13:03:56;12.20;99.90
12893;DHT22;6514;48.606;9.222;2023-12-29T13:06:25;12.10;99.90
12893;DHT22;6514;48.606;9.222;2023-12-29T13:08:54;12.00;99.90
12893;DHT22;6514;48.606;9.222;2023-12-29T13:11:21;11.90;99.90
12893;DHT22;6514;48.606;9.222;2023-12-29T13:13:50;11.90;99.90
12893;DHT22;6514;48.606;9.222;2023-12-29T13:16:28;11.90;99.90
12893;DHT22;6514;48.606;9.222;2023-12-29T13:18:55;12.00;99.90
12893;DHT22;6514;48.606;9.222;2023-12-29T13:21:22;12.10;99.90
12893;DHT22;6514;48.606;9.222;2023-12-29T13:23:49;12.10;99.90
12893;DHT22;6514;48.606;9.222;2023-12-29T13:26:18;12.10;99.90
12893;DHT22;6514;48.606;9.222;2023-12-29T13:28:46;12.10;99.90
12893;DHT22;6514;48.606;9.222;2023-12-29T13:31:13;12.20;99.90
12893;DHT22;6514;48.606;9.222;2023-12-29T13:33:47;12.30;99.90
12893;DHT22;6514;48.606;9.222;2023-12-29T13:36:22;12.30;99.90
12893;DHT22;6514;48.606;9.222;2023-12-29T13:38:53;12.20;99.90
12893;DHT22;6514;48.606;9.222;2023-12-29T13:41:22;12.10;99.90
12893;DHT22;6514;48.606;9.222;2023-12-29T13:43:52;12.00;99.90
12893;DHT22;6514;48.606;9.222;2023-12-29T13:46:20;12.10;99.90
12893;DHT22;6514;48.606;9.222;2023-12-29T13:48:47;12.20;99.90
12893;DHT22;6514;48.606;9.222;2023-12-29T13:51:16;12.20;99.90
12893;DHT22;6514;48.606;9.222;2023-12-29T13:53:43;12.10;99.90
12893;DHT22;6514;48.606;9.222;2023-12-29T13:56:11;12.00;99.90
12893;DHT22;6514;48.606;9.222;2023-12-29T13:58:39;12.00;99.90
12893;DHT22;6514;48.606;9.222;2023-12-29T14:01:08;12.00;99.90
12893;DHT22;6514;48.606;9.222;2023-12-29T14:03:43;12.00;99.90
12893;DHT22;6514;48.606;9.222;2023-12-29T14:06:20;12.00;99.90
12893;DHT22;6514;48.606;9.222;2023-12-29T14:08:47;11.90;99.90
12893;DHT22;6514;48.606;9.222;2023-12-29T14:11:16;11.60;99.90
12893;DHT22;6514;48.606;9.222;2023-12-29T14:14:03;11.60;99.90
12893;DHT22;6514;48.606;9.222;2023-12-29T14:16:30;11.50;99.90
12893;DHT22;6514;48.606;9.222;2023-12-29T14:18:59;11.40;99.90
12893;DHT22;6514;48.606;9.222;2023-12-29T14:21:31;11.30;99.90
12893;DHT22;6514;48.606;9.222;2023-12-29T14:24:05;11.20;99.90
12893;DHT22;6514;48.606;9.222;2023-12-29T14:26:57;11.10;99.90
12893;DHT22;6514;48.606;9.222;2023-12-29T14:29:26;11.00;99.90
12893;DHT22;6514;48.606;9.222;2023-12-29T14:31:53;11.00;99.90
12893;DHT22;6514;48.606;9.222;2023-12-29T14:34:21;10.90;99.90
12893;DHT22;6514;48.606;9.222;2023-12-29T14:36:48;10.80;99.90
12893;DHT22;6514;48.606;9.222;2023-12-29T14:39:15;10.90;99.90
12893;DHT22;6514;48.606;9.222;2023-12-29T14:41:42;10.70;99.90
12893;DHT22;6514;48.606;9.222;2023-12-29T14:44:10;10.70;99.90
12893;DHT22;6514;48.606;9.222;2023-12-29T14:46:40;10.60;99.90
12893;DHT22;6514;48.606;9.222;2023-12-29T14:49:07;10.50;99.90
12893;DHT22;6514;48.606;9.222;2023-12-29T14:51:36;10.50;99.90
12893;DHT22;6514;48.606;9.222;2023-12-29T14:54:03;10.40;99.90
12893;DHT22;6514;48.606;9.222;2023-12-29T14:56:30;10.30;99.90
12893;DHT22;6514;48.606;9.222;2023-12-29T14:58:57;10.30;99.90
12893;DHT22;6514;48.606;9.222;2023-12-29T15:01:26;10.20;99.90
12893;DHT22;6514;48.606;9.222;2023-12-29T15:03:55;10.20;99.90
12893;DHT22;6514;48.606;9.222;2023-12-29T15:06:23;10.20;99.90
12893;DHT22;6514;48.606;9.222;2023-12-29T15:08:50;10.10;99.90
12893;DHT22;6514;48.606;9.222;2023-12-29T15:11:17;10.80;99.90
12893;DHT22;6514;48.606;9.222;2023-12-29T15:13:46;9.90;99.90
12893;DHT22;6514;48.606;9.222;2023-12-29T15:16:13;9.90;99.90
12893;DHT22;6514;48.606;9.222;2023-12-29T15:18:40;9.80;99.90
12893;DHT22;6514;48.606;9.222;2023-12-29T15:21:08;9.80;99.90
12893;DHT22;6514;48.606;9.222;2023-12-29T15:23:36;9.70;99.90
12893;DHT22;6514;48.606;9.222;2023-12-29T15:26:03;9.60;99.90
12893;DHT22;6514;48.606;9.222;2023-12-29T15:28:30;9.50;99.90
12893;DHT22;6514;48.606;9.222;2023-12-29T15:30:57;9.40;99.90
12893;DHT22;6514;48.606;9.222;2023-12-29T15:33:24;9.40;99.90
12893;DHT22;6514;48.606;9.222;2023-12-29T15:35:51;9.30;99.90
12893;DHT22;6514;48.606;9.222;2023-12-29T15:38:19;9.20;99.90
12893;DHT22;6514;48.606;9.222;2023-12-29T15:40:46;9.10;99.90
12893;DHT22;6514;48.606;9.222;2023-12-29T15:43:13;9.20;99.90
12893;DHT22;6514;48.606;9.222;2023-12-29T15:45:40;9.10;99.90
12893;DHT22;6514;48.606;9.222;2023-12-29T15:48:08;9.00;99.90
12893;DHT22;6514;48.606;9.222;2023-12-29T15:50:35;8.90;99.90
12893;DHT22;6514;48.606;9.222;2023-12-29T15:53:02;8.80;99.90
12893;DHT22;6514;48.606;9.222;2023-12-29T15:55:30;8.80;99.90
12893;DHT22;6514;48.606;9.222;2023-12-29T15:57:57;8.80;99.90
12893;DHT22;6514;48.606;9.222;2023-12-29T16:00:25;8.60;99.90
12893;DHT22;6514;48.606;9.222;2023-12-29T16:02:52;8.60;99.90